createdAt,value
2018-08-11T00:01:32.967Z,2.37
2018-08-11T00:04:02.772Z,2.80
2018-08-11T00:06:33.052Z,2.13
2018-08-11T00:09:03.122Z,1.60
2018-08-11T00:11:33.060Z,2.00
2018-08-11T00:14:02.937Z,1.83
2018-08-11T00:16:32.926Z,1.57
2018-08-11T00:19:02.960Z,1.90
2018-08-11T00:21:32.919Z,1.73
2018-08-11T00:24:02.919Z,1.80
2018-08-11T00:26:32.827Z,1.80
2018-08-11T00:29:02.956Z,2.07
2018-08-11T00:31:32.804Z,2.50
2018-08-11T00:34:02.913Z,2.03
2018-08-11T00:36:32.844Z,2.33
2018-08-11T00:39:02.716Z,3.10
2018-08-11T00:41:32.639Z,2.70
2018-08-11T00:44:02.721Z,2.80
2018-08-11T00:46:32.871Z,1.80
2018-08-11T00:49:02.899Z,1.60
2018-08-11T00:51:33.670Z,1.20
2018-08-11T00:54:03.690Z,1.30
2018-08-11T00:56:33.803Z,1.10
2018-08-11T00:59:03.693Z,1.00
2018-08-11T01:01:33.661Z,1.10
2018-08-11T01:04:03.890Z,0.80
2018-08-11T01:06:33.823Z,0.97
2018-08-11T01:09:04.382Z,1.00
2018-08-11T01:11:34.300Z,0.93
2018-08-11T01:14:04.357Z,0.90
2018-08-11T01:16:34.308Z,1.20
2018-08-11T01:19:04.154Z,0.73
2018-08-11T01:21:34.051Z,0.90
2018-08-11T01:24:04.151Z,1.00
2018-08-11T01:26:34.270Z,0.93
2018-08-11T01:29:04.548Z,0.47
2018-08-11T01:31:34.697Z,0.70
2018-08-11T01:34:04.676Z,0.80
2018-08-11T01:36:34.450Z,0.80
2018-08-11T01:39:06.461Z,1.00
2018-08-11T01:41:36.545Z,0.70
2018-08-11T01:44:06.858Z,0.70
2018-08-11T01:46:36.984Z,0.90
2018-08-11T01:49:07.012Z,0.73
2018-08-11T01:51:36.896Z,0.80
2018-08-11T01:54:07.470Z,0.77
2018-08-11T01:56:37.240Z,0.70
2018-08-11T01:59:07.276Z,0.70
2018-08-11T02:01:37.122Z,0.70
2018-08-11T02:04:07.067Z,0.70
2018-08-11T02:06:36.896Z,0.63
2018-08-11T02:09:10.135Z,0.93
2018-08-11T02:11:40.622Z,1.00
2018-08-11T02:14:10.986Z,1.30
2018-08-11T02:16:40.874Z,1.30
2018-08-11T02:19:10.714Z,1.20
2018-08-11T02:21:40.672Z,1.30
2018-08-11T02:24:10.525Z,1.20
2018-08-11T02:26:40.452Z,1.20
2018-08-11T02:29:10.461Z,1.20
2018-08-11T02:31:40.652Z,1.57
2018-08-11T02:34:10.603Z,1.40
2018-08-11T02:36:40.436Z,1.70
2018-08-11T02:39:14.005Z,1.50
2018-08-11T02:41:44.322Z,1.47
2018-08-11T02:44:14.383Z,1.60
2018-08-11T02:46:44.290Z,1.70
2018-08-11T02:49:14.203Z,1.40
2018-08-11T02:51:44.103Z,1.50
2018-08-11T02:54:14.140Z,1.53
2018-08-11T02:56:44.336Z,1.80
2018-08-11T02:59:14.217Z,1.73
2018-08-11T03:01:43.996Z,1.50
2018-08-11T03:04:13.747Z,1.30
2018-08-11T03:06:43.590Z,1.50
2018-08-11T03:09:13.489Z,1.43
2018-08-11T03:11:43.311Z,1.47
2018-08-11T03:14:13.245Z,1.50
2018-08-11T03:16:43.232Z,1.37
2018-08-11T03:19:13.022Z,1.30
2018-08-11T03:21:43.056Z,1.40
2018-08-11T03:24:13.092Z,1.37
2018-08-11T03:26:42.992Z,1.07
2018-08-11T03:29:13.016Z,1.30
2018-08-11T03:31:42.927Z,1.30
2018-08-11T03:34:12.788Z,1.20
2018-08-11T03:36:42.766Z,1.13
2018-08-11T03:39:13.277Z,1.43
2018-08-11T03:41:43.171Z,1.23
2018-08-11T03:44:13.376Z,1.40
2018-08-11T03:46:43.171Z,1.70
2018-08-11T03:49:13.232Z,1.80
2018-08-11T03:51:43.058Z,2.07
2018-08-11T03:54:12.930Z,1.87
2018-08-11T03:56:42.786Z,1.93
2018-08-11T03:59:12.680Z,1.73
2018-08-11T04:01:42.632Z,2.07
2018-08-11T04:04:12.530Z,1.90
2018-08-11T04:06:42.413Z,1.90
2018-08-11T04:09:12.195Z,1.93
2018-08-11T04:11:41.997Z,2.10
2018-08-11T04:14:11.902Z,1.63
2018-08-11T04:16:41.908Z,1.73
2018-08-11T04:19:11.769Z,1.90
2018-08-11T04:21:41.669Z,1.90
2018-08-11T04:24:11.903Z,2.10
2018-08-11T04:26:41.778Z,2.20
2018-08-11T04:29:11.626Z,2.23
2018-08-11T04:31:41.813Z,2.27
2018-08-11T04:34:11.627Z,2.37
2018-08-11T04:36:41.460Z,2.37
2018-08-11T04:39:11.491Z,2.40
2018-08-11T04:41:41.328Z,2.60
2018-08-11T04:44:11.307Z,2.50
2018-08-11T04:46:41.280Z,2.40
2018-08-11T04:49:11.207Z,2.50
2018-08-11T04:51:41.175Z,2.67
2018-08-11T04:54:11.142Z,2.33
2018-08-11T04:56:40.961Z,3.00
2018-08-11T04:59:10.918Z,2.13
2018-08-11T05:01:40.673Z,2.43
2018-08-11T05:04:10.632Z,2.40
2018-08-11T05:06:40.544Z,2.50
2018-08-11T05:09:11.350Z,2.70
2018-08-11T05:11:41.471Z,3.17
2018-08-11T05:14:11.396Z,3.17
2018-08-11T05:16:41.216Z,3.10
2018-08-11T05:19:11.337Z,2.90
2018-08-11T05:21:41.277Z,3.10
2018-08-11T05:24:11.257Z,3.00
2018-08-11T05:26:41.136Z,3.40
2018-08-11T05:29:10.954Z,3.40
2018-08-11T05:31:40.971Z,3.20
2018-08-11T05:34:10.825Z,3.47
2018-08-11T05:36:40.682Z,3.50
2018-08-11T05:39:13.716Z,2.90
2018-08-11T05:41:43.630Z,2.97
2018-08-11T05:44:13.509Z,3.30
2018-08-11T05:46:43.426Z,3.07
2018-08-11T05:49:13.252Z,2.70
2018-08-11T05:51:43.458Z,3.43
2018-08-11T05:54:13.315Z,3.33
2018-08-11T05:56:43.197Z,3.07
2018-08-11T05:59:13.128Z,3.00
2018-08-11T06:01:42.996Z,3.43
2018-08-11T06:04:13.123Z,3.30
2018-08-11T06:06:43.136Z,3.40
2018-08-11T06:09:13.003Z,3.40
2018-08-11T06:11:43.113Z,3.33
2018-08-11T06:14:13.270Z,3.37
2018-08-11T06:16:43.146Z,3.23
2018-08-11T06:19:13.162Z,3.63
2018-08-11T06:21:43.538Z,3.70
2018-08-11T06:24:13.778Z,3.40
2018-08-11T06:26:43.623Z,3.73
2018-08-11T06:29:13.499Z,3.43
2018-08-11T06:31:43.400Z,3.20
2018-08-11T06:34:13.516Z,3.53
2018-08-11T06:36:43.369Z,3.30
2018-08-11T06:39:14.724Z,3.40
2018-08-11T06:41:44.977Z,3.43
2018-08-11T06:44:14.926Z,3.17
2018-08-11T06:46:45.049Z,3.20
2018-08-11T06:49:15.088Z,3.17
2018-08-11T06:51:44.872Z,3.57
2018-08-11T06:54:14.923Z,3.60
2018-08-11T06:56:45.036Z,3.00
2018-08-11T06:59:14.959Z,3.10
2018-08-11T07:01:44.889Z,3.20
2018-08-11T07:04:14.853Z,2.67
2018-08-11T07:06:44.965Z,3.00
2018-08-11T07:09:15.035Z,2.87
2018-08-11T07:11:44.992Z,2.80
2018-08-11T07:14:14.954Z,2.73
2018-08-11T07:16:44.896Z,3.10
2018-08-11T07:19:14.778Z,2.70
2018-08-11T07:21:45.042Z,2.60
2018-08-11T07:24:14.772Z,2.43
2018-08-11T07:26:44.847Z,2.40
2018-08-11T07:29:14.845Z,2.30
2018-08-11T07:31:44.752Z,2.27
2018-08-11T07:34:14.617Z,1.97
2018-08-11T07:36:44.678Z,2.00
2018-08-11T07:39:14.636Z,2.50
2018-08-11T07:41:44.484Z,2.17
2018-08-11T07:44:14.489Z,2.20
2018-08-11T07:46:44.354Z,2.00
2018-08-11T07:49:14.477Z,1.93
2018-08-11T07:51:44.901Z,2.33
2018-08-11T07:54:14.685Z,2.20
2018-08-11T07:56:44.505Z,2.40
2018-08-11T07:59:14.476Z,1.90
2018-08-11T08:01:44.762Z,1.90
2018-08-11T08:04:14.757Z,1.90
2018-08-11T08:06:44.919Z,2.00
2018-08-11T08:09:15.051Z,2.37
2018-08-11T08:11:45.090Z,1.97
2018-08-11T08:14:14.916Z,1.70
2018-08-11T08:16:44.943Z,1.87
2018-08-11T08:19:14.928Z,1.63
2018-08-11T08:21:45.002Z,2.00
2018-08-11T08:24:15.060Z,2.10
2018-08-11T08:26:44.892Z,1.97
2018-08-11T08:29:14.677Z,1.93
2018-08-11T08:31:44.579Z,1.90
2018-08-11T08:34:14.547Z,2.07
2018-08-11T08:36:44.360Z,1.90
2018-08-11T08:39:14.280Z,2.07
2018-08-11T08:41:44.563Z,1.70
2018-08-11T08:44:14.652Z,1.80
2018-08-11T08:46:44.748Z,1.80
2018-08-11T08:49:15.091Z,2.03
2018-08-11T08:51:44.897Z,1.80
2018-08-11T08:54:14.906Z,2.30
2018-08-11T08:56:44.964Z,2.00
2018-08-11T08:59:14.966Z,1.70
2018-08-11T09:01:44.755Z,1.57
2018-08-11T09:04:14.706Z,1.87
2018-08-11T09:06:44.596Z,1.70
2018-08-11T09:09:14.536Z,2.00
2018-08-11T09:11:44.354Z,1.70
2018-08-11T09:14:14.196Z,1.80
2018-08-11T09:16:44.409Z,1.70
2018-08-11T09:19:14.377Z,1.70
2018-08-11T09:21:44.320Z,1.87
2018-08-11T09:24:14.451Z,1.73
2018-08-11T09:26:44.258Z,1.53
2018-08-11T09:29:14.969Z,1.80
2018-08-11T09:31:44.770Z,2.00
2018-08-11T09:34:14.648Z,1.77
2018-08-11T09:36:44.584Z,1.50
2018-08-11T09:39:14.457Z,1.60
2018-08-11T09:41:44.561Z,1.33
2018-08-11T09:44:14.419Z,2.00
2018-08-11T09:46:44.316Z,1.77
2018-08-11T09:49:14.123Z,1.70
2018-08-11T09:51:44.138Z,1.87
2018-08-11T09:54:14.046Z,2.10
2018-08-11T09:56:43.905Z,1.83
2018-08-11T09:59:13.904Z,1.50
2018-08-11T10:01:46.051Z,1.90
2018-08-11T10:04:16.328Z,2.10
2018-08-11T10:06:46.321Z,2.07
2018-08-11T10:09:16.400Z,1.80
2018-08-11T10:11:46.585Z,1.80
2018-08-11T10:14:16.761Z,1.80
2018-08-11T10:16:46.645Z,1.83
2018-08-11T10:19:16.767Z,1.70
2018-08-11T10:21:46.696Z,1.60
2018-08-11T10:24:17.000Z,1.60
2018-08-11T10:26:47.208Z,1.63
2018-08-11T10:29:17.070Z,1.40
2018-08-11T10:31:46.894Z,1.90
2018-08-11T10:34:16.743Z,1.53
2018-08-11T10:36:46.716Z,1.67
2018-08-11T10:39:17.085Z,1.40
2018-08-11T10:41:47.077Z,2.10
2018-08-11T10:44:17.013Z,1.63
2018-08-11T10:46:46.974Z,2.00
2018-08-11T10:49:16.919Z,1.70
2018-08-11T10:51:46.795Z,1.73
2018-08-11T10:54:16.592Z,1.90
2018-08-11T10:56:46.806Z,1.80
2018-08-11T10:59:16.780Z,1.60
2018-08-11T11:01:46.736Z,1.77
2018-08-11T11:04:16.696Z,1.47
2018-08-11T11:06:46.649Z,1.43
2018-08-11T11:09:16.527Z,1.80
2018-08-11T11:11:46.409Z,1.50
2018-08-11T11:14:16.465Z,1.40
2018-08-11T11:16:46.346Z,1.30
2018-08-11T11:19:16.316Z,1.70
2018-08-11T11:21:46.269Z,1.40
2018-08-11T11:24:16.260Z,1.30
2018-08-11T11:26:46.401Z,1.20
2018-08-11T11:29:16.460Z,1.43
2018-08-11T11:31:46.287Z,1.60
2018-08-11T11:34:16.692Z,1.80
2018-08-11T11:36:46.625Z,1.53
2018-08-11T11:39:16.708Z,1.27
2018-08-11T11:41:46.512Z,1.50
2018-08-11T11:44:16.642Z,1.23
2018-08-11T11:46:46.634Z,1.20
2018-08-11T11:49:16.618Z,1.47
2018-08-11T11:51:46.497Z,1.40
2018-08-11T11:54:16.411Z,1.20
2018-08-11T11:56:46.465Z,1.10
2018-08-11T11:59:16.323Z,1.33
2018-08-11T12:01:46.288Z,1.20
2018-08-11T12:04:16.321Z,1.10
2018-08-11T12:06:46.426Z,1.20
2018-08-11T12:09:16.207Z,1.43
2018-08-11T12:11:46.072Z,1.30
2018-08-11T12:14:16.179Z,1.27
2018-08-11T12:16:46.079Z,1.40
2018-08-11T12:19:16.127Z,1.37
2018-08-11T12:21:45.976Z,1.10
2018-08-11T12:24:16.121Z,1.30
2018-08-11T12:26:45.896Z,1.50
2018-08-11T12:29:15.828Z,1.30
2018-08-11T12:31:45.874Z,1.70
2018-08-11T12:34:15.893Z,1.50
2018-08-11T12:36:45.860Z,1.63
2018-08-11T12:39:15.760Z,1.80
2018-08-11T12:41:45.774Z,1.30
2018-08-11T12:44:16.034Z,1.60
2018-08-11T12:46:46.261Z,1.67
2018-08-11T12:49:16.346Z,1.53
2018-08-11T12:51:46.183Z,1.70
2018-08-11T12:54:16.229Z,1.60
2018-08-11T12:56:46.124Z,1.70
2018-08-11T12:59:16.202Z,1.60
2018-08-11T13:01:45.969Z,1.70
2018-08-11T13:04:15.986Z,1.53
2018-08-11T13:06:46.214Z,1.70
2018-08-11T13:09:16.325Z,1.53
2018-08-11T13:11:46.161Z,1.90
2018-08-11T13:14:16.028Z,2.00
2018-08-11T13:16:45.993Z,1.73
2018-08-11T13:19:15.936Z,1.83
2018-08-11T13:21:45.810Z,2.13
2018-08-11T13:24:15.652Z,2.10
2018-08-11T13:26:45.590Z,2.40
2018-08-11T13:29:15.476Z,2.20
2018-08-11T13:31:45.333Z,2.17
2018-08-11T13:34:15.312Z,2.23
2018-08-11T13:36:45.306Z,1.87
2018-08-11T13:39:15.195Z,2.00
2018-08-11T13:41:48.247Z,2.27
2018-08-11T13:44:20.570Z,1.70
2018-08-11T13:46:50.607Z,2.20
2018-08-11T13:49:20.481Z,1.90
2018-08-11T13:51:50.476Z,2.00
2018-08-11T13:54:20.376Z,2.00
2018-08-11T13:56:50.588Z,2.00
2018-08-11T13:59:20.525Z,1.93
2018-08-11T14:01:50.533Z,2.17
2018-08-11T14:04:20.409Z,1.70
2018-08-11T14:06:50.347Z,2.20
2018-08-11T14:09:20.238Z,2.10
2018-08-11T14:11:50.265Z,2.30
2018-08-11T14:14:20.212Z,1.67
2018-08-11T14:16:50.294Z,2.20
2018-08-11T14:19:20.233Z,1.90
2018-08-11T14:21:50.155Z,1.90
2018-08-11T14:24:20.268Z,2.10
2018-08-11T14:26:50.058Z,2.23
2018-08-11T14:29:20.070Z,2.03
2018-08-11T14:31:50.053Z,2.10
2018-08-11T14:34:20.233Z,2.10
2018-08-11T14:36:50.125Z,1.97
2018-08-11T14:39:20.057Z,2.03
2018-08-11T14:41:49.960Z,2.27
2018-08-11T14:44:20.039Z,2.20
2018-08-11T14:46:52.905Z,2.20
2018-08-11T14:49:23.128Z,2.33
2018-08-11T14:51:52.986Z,1.80
2018-08-11T14:54:55.771Z,2.13
2018-08-11T14:57:25.803Z,2.30
2018-08-11T14:59:55.624Z,2.17
2018-08-11T15:02:25.655Z,2.10
2018-08-11T15:05:21.914Z,2.30
2018-08-11T15:07:52.396Z,1.83
2018-08-11T15:10:22.830Z,6.87
2018-08-11T15:12:52.650Z,6.97
2018-08-11T15:15:22.684Z,3.93
2018-08-11T15:17:52.574Z,3.57
2018-08-11T15:20:26.719Z,2.50
2018-08-11T15:22:57.114Z,2.20
2018-08-11T15:25:26.983Z,1.80
2018-08-11T15:27:57.107Z,1.90
2018-08-11T15:30:26.990Z,1.90
2018-08-11T15:32:56.788Z,1.97
2018-08-11T15:35:26.584Z,1.80
2018-08-11T15:37:57.630Z,1.67
2018-08-11T15:40:27.499Z,1.80
2018-08-11T15:42:57.612Z,1.90
2018-08-11T15:45:27.530Z,1.90
2018-08-11T15:47:57.605Z,1.90
2018-08-11T15:50:27.433Z,2.10
2018-08-11T15:52:57.392Z,2.43
2018-08-11T15:55:27.487Z,1.80
2018-08-11T15:57:57.276Z,2.27
2018-08-11T16:00:42.901Z,2.13
2018-08-11T16:03:12.778Z,2.60
2018-08-11T16:05:43.189Z,2.63
2018-08-11T16:08:13.097Z,2.03
2018-08-11T16:10:43.124Z,2.50
2018-08-11T16:13:12.967Z,1.77
2018-08-11T16:15:43.208Z,2.20
2018-08-11T16:18:13.841Z,1.63
2018-08-11T16:20:43.615Z,1.70
2018-08-11T16:23:13.737Z,1.43
2018-08-11T16:25:43.684Z,1.80
2018-08-11T16:28:13.800Z,2.23
2018-08-11T16:30:43.596Z,1.80
2018-08-11T16:33:13.529Z,2.27
2018-08-11T16:35:43.613Z,2.30
2018-08-11T16:38:13.481Z,2.00
2018-08-11T16:40:43.355Z,2.10
2018-08-11T16:43:13.182Z,1.80
2018-08-11T16:45:43.472Z,2.00
2018-08-11T16:48:13.223Z,1.80
2018-08-11T16:50:43.204Z,1.90
2018-08-11T16:53:13.168Z,2.03
2018-08-11T16:55:43.186Z,1.60
2018-08-11T16:58:13.291Z,1.70
2018-08-11T17:00:43.409Z,2.47
2018-08-11T17:03:13.434Z,1.83
2018-08-11T17:05:43.302Z,1.80
2018-08-11T17:08:13.251Z,1.60
2018-08-11T17:10:43.074Z,1.93
2018-08-11T17:13:13.084Z,2.47
2018-08-11T17:15:43.240Z,2.07
2018-08-11T17:18:13.068Z,1.80
2018-08-11T17:20:43.292Z,2.27
2018-08-11T17:23:13.095Z,1.90
2018-08-11T17:25:42.840Z,1.90
2018-08-11T17:28:12.657Z,2.53
2018-08-11T17:30:42.519Z,2.30
2018-08-11T17:33:12.341Z,1.90
2018-08-11T17:35:42.198Z,2.40
2018-08-11T17:38:12.149Z,2.07
2018-08-11T17:40:42.000Z,2.07
2018-08-11T17:43:11.925Z,2.10
2018-08-11T17:45:41.842Z,2.23
2018-08-11T17:48:11.836Z,1.83
2018-08-11T17:50:41.687Z,2.20
2018-08-11T17:53:11.889Z,2.20
2018-08-11T17:55:41.716Z,2.27
2018-08-11T17:58:11.627Z,2.50
2018-08-11T18:00:41.612Z,2.53
2018-08-11T18:03:11.602Z,2.60
2018-08-11T18:05:41.519Z,2.07
2018-08-11T18:08:11.489Z,2.07
2018-08-11T18:10:41.316Z,2.23
2018-08-11T18:13:11.174Z,1.77
2018-08-11T18:15:40.994Z,2.27
2018-08-11T18:18:10.830Z,2.10
2018-08-11T18:20:40.754Z,3.03
2018-08-11T18:23:12.596Z,2.40
2018-08-11T18:25:42.513Z,2.00
2018-08-11T18:28:12.471Z,2.33
2018-08-11T18:30:42.369Z,2.90
2018-08-11T18:33:12.576Z,2.37
2018-08-11T18:35:42.694Z,3.03
2018-08-11T18:38:12.906Z,2.93
2018-08-11T18:40:42.692Z,3.10
2018-08-11T18:43:12.653Z,3.13
2018-08-11T18:45:42.644Z,3.27
2018-08-11T18:48:12.720Z,2.33
2018-08-11T18:50:42.598Z,2.10
2018-08-11T18:53:12.885Z,2.13
2018-08-11T18:55:42.782Z,2.00
2018-08-11T18:58:11.484Z,2.30
2018-08-11T19:00:41.385Z,2.37
2018-08-11T19:03:11.258Z,2.07
2018-08-11T19:05:41.181Z,2.23
2018-08-11T19:08:11.103Z,1.90
2018-08-11T19:10:41.105Z,2.00
2018-08-11T19:13:11.295Z,2.17
2018-08-11T19:15:41.303Z,2.00
2018-08-11T19:18:11.164Z,1.90
2018-08-11T19:20:41.296Z,1.90
2018-08-11T19:23:11.323Z,2.03
2018-08-11T19:25:41.464Z,1.93
2018-08-11T19:28:11.275Z,2.67
2018-08-11T19:30:41.264Z,2.10
2018-08-11T19:33:11.216Z,2.47
2018-08-11T19:35:41.051Z,2.17
2018-08-11T19:38:10.947Z,1.93
2018-08-11T19:40:40.835Z,2.43
2018-08-11T19:43:10.819Z,1.80
2018-08-11T19:45:40.769Z,2.13
2018-08-11T19:48:10.829Z,2.07
2018-08-11T19:50:40.837Z,1.67
2018-08-11T19:53:10.823Z,1.73
2018-08-11T19:55:40.862Z,1.63
2018-08-11T19:58:10.758Z,1.90
2018-08-11T20:00:40.843Z,2.00
2018-08-11T20:03:10.791Z,1.87
2018-08-11T20:05:40.946Z,2.10
2018-08-11T20:08:11.147Z,1.80
2018-08-11T20:10:41.141Z,1.87
2018-08-11T20:13:11.126Z,1.87
2018-08-11T20:15:41.125Z,1.93
2018-08-11T20:18:11.195Z,1.80
2018-08-11T20:20:41.071Z,1.70
2018-08-11T20:23:11.128Z,2.00
2018-08-11T20:25:41.384Z,1.70
2018-08-11T20:28:12.229Z,1.90
2018-08-11T20:30:42.213Z,2.00
2018-08-11T20:33:12.070Z,1.80
2018-08-11T20:35:42.374Z,2.03
2018-08-11T20:38:12.300Z,1.70
2018-08-11T20:40:42.220Z,1.77
2018-08-11T20:43:12.263Z,2.00
2018-08-11T20:45:42.441Z,1.87
2018-08-11T20:48:12.528Z,2.10
2018-08-11T20:50:43.315Z,1.53
2018-08-11T20:53:13.500Z,1.80
2018-08-11T20:55:43.741Z,1.60
2018-08-11T20:58:13.736Z,2.10
2018-08-11T21:00:43.668Z,1.70
2018-08-11T21:03:14.130Z,2.10
2018-08-11T21:05:44.249Z,1.87
2018-08-11T21:08:14.506Z,2.10
2018-08-11T21:10:44.535Z,2.00
2018-08-11T21:13:14.572Z,2.00
2018-08-11T21:15:44.466Z,1.97
2018-08-11T21:20:50.055Z,2.00
2018-08-11T21:23:20.185Z,1.93
2018-08-11T21:25:50.255Z,1.80
2018-08-11T21:28:20.435Z,2.00
2018-08-11T21:30:50.315Z,2.00
2018-08-11T21:33:20.345Z,1.90
2018-08-11T21:35:50.237Z,1.77
2018-08-11T21:38:20.444Z,1.47
2018-08-11T21:40:50.969Z,3.30
2018-08-11T21:43:21.353Z,2.30
2018-08-11T21:45:51.202Z,2.20
2018-08-11T21:48:21.561Z,1.90
2018-08-11T21:50:51.452Z,2.03
2018-08-11T21:53:21.450Z,2.30
2018-08-11T21:55:51.493Z,2.20
2018-08-11T21:58:21.821Z,2.57
2018-08-11T22:00:58.093Z,2.10
2018-08-11T22:03:28.559Z,2.30
2018-08-11T22:05:58.542Z,2.20
2018-08-11T22:08:28.944Z,2.20
2018-08-11T22:10:58.898Z,2.30
2018-08-11T22:13:28.803Z,2.30
2018-08-11T22:15:59.344Z,2.27
2018-08-11T22:18:29.472Z,2.63
2018-08-11T22:20:59.466Z,2.27
2018-08-11T22:23:29.463Z,2.40
2018-08-11T22:25:59.501Z,2.40
2018-08-11T22:28:29.683Z,2.43
2018-08-11T22:30:59.809Z,2.67
2018-08-11T22:33:29.840Z,2.17
2018-08-11T22:35:59.850Z,2.23
2018-08-11T22:38:29.788Z,2.63
2018-08-11T22:40:59.734Z,2.33
2018-08-11T22:43:29.770Z,2.70
2018-08-11T22:45:59.649Z,2.60
2018-08-11T22:48:29.846Z,2.40
2018-08-11T22:51:00.098Z,2.33
2018-08-11T22:53:30.004Z,2.57
2018-08-11T22:55:59.882Z,2.43
2018-08-11T22:58:30.143Z,2.57
2018-08-11T23:01:00.299Z,2.40
2018-08-11T23:03:30.394Z,2.50
2018-08-11T23:06:00.995Z,2.40
2018-08-11T23:08:30.844Z,2.50
2018-08-11T23:11:00.752Z,2.50
2018-08-11T23:13:30.763Z,2.30
2018-08-11T23:16:00.802Z,2.60
2018-08-11T23:18:30.856Z,2.30
2018-08-11T23:21:00.729Z,2.03
2018-08-11T23:23:30.709Z,2.20
2018-08-11T23:26:00.660Z,2.30
2018-08-11T23:28:30.773Z,2.43
2018-08-11T23:31:00.894Z,2.40
2018-08-11T23:33:30.951Z,2.27
2018-08-11T23:36:00.782Z,2.23
2018-08-11T23:38:30.725Z,1.93
2018-08-11T23:41:00.611Z,2.77
2018-08-11T23:43:30.713Z,2.10
2018-08-11T23:46:00.992Z,2.00
2018-08-11T23:48:31.009Z,2.20
2018-08-11T23:51:01.035Z,2.27
2018-08-11T23:53:31.046Z,1.80
2018-08-11T23:56:01.053Z,2.00
2018-08-11T23:58:31.171Z,2.20
